Bluff Park, Iowa
Current Conditions -  °F | °C
As of 7:15 PM on Thursday 27 Nov 2014 (Local Time) from KEOK Reporting Station
Clear Clear  
Wind Chill:   Ceiling: Unl
Heat Index: 12°   Visibility: 10mi
Dew Point:   Wind: 5mph
Humidity: 79%   Direction: 80°E
Pressure: 30.42"   Gusts: NA
Location:  40.5024°N, 91.4364°W
Report Text: KEOK 280115Z AUTO 08004KT 10SM CLR M11/M14 A3042 RMK AO2
Loading
Personal Weather Stations






























Interactive Weather Map New forecast layout! Learn more

10-Day Weather Forecast

Advertisements
Track Severe Weather on mobile